createdAt,value
2018-08-10T00:01:13.816Z,18.40
2018-08-10T00:03:41.999Z,18.40
2018-08-10T00:06:10.240Z,18.40
2018-08-10T00:08:38.461Z,18.40
2018-08-10T00:11:06.836Z,18.40
2018-08-10T00:13:35.184Z,18.50
2018-08-10T00:16:03.400Z,18.50
2018-08-10T00:18:31.742Z,18.50
2018-08-10T00:20:59.996Z,18.50
2018-08-10T00:23:28.194Z,18.60
2018-08-10T00:25:56.443Z,18.60
2018-08-10T00:28:24.731Z,18.60
2018-08-10T00:30:52.970Z,18.60
2018-08-10T00:33:21.179Z,18.60
2018-08-10T00:35:49.420Z,18.50
2018-08-10T00:38:17.703Z,18.50
2018-08-10T00:40:45.906Z,18.50
2018-08-10T00:43:14.149Z,18.40
2018-08-10T00:45:42.373Z,18.40
2018-08-10T00:48:10.588Z,18.30
2018-08-10T00:50:38.844Z,18.30
2018-08-10T00:53:07.053Z,18.20
2018-08-10T00:55:35.296Z,18.20
2018-08-10T00:58:03.535Z,18.10
2018-08-10T01:00:31.732Z,18.10
2018-08-10T01:02:59.954Z,18.00
2018-08-10T01:05:28.184Z,17.90
2018-08-10T01:07:56.435Z,17.90
2018-08-10T01:10:24.701Z,17.80
2018-08-10T01:12:52.917Z,17.60
2018-08-10T01:15:21.113Z,17.50
2018-08-10T01:17:49.336Z,17.40
2018-08-10T01:20:19.027Z,17.30
2018-08-10T01:22:52.772Z,17.20
2018-08-10T01:25:22.350Z,17.10
2018-08-10T01:27:58.623Z,17.00
2018-08-10T01:30:28.012Z,16.90
2018-08-10T01:32:56.340Z,16.90
2018-08-10T01:35:25.519Z,16.80
2018-08-10T01:37:54.424Z,16.80
2018-08-10T01:40:22.611Z,16.70
2018-08-10T01:42:50.867Z,16.60
2018-08-10T01:45:19.069Z,16.60
2018-08-10T01:47:47.335Z,16.50
2018-08-10T01:50:15.523Z,16.50
2018-08-10T01:52:44.084Z,16.40
2018-08-10T01:55:12.511Z,16.30
2018-08-10T01:57:41.112Z,16.30
2018-08-10T02:00:09.868Z,16.20
2018-08-10T02:02:38.129Z,16.20
2018-08-10T02:05:08.380Z,16.20
2018-08-10T02:07:37.839Z,16.10
2018-08-10T02:10:07.669Z,16.10
2018-08-10T02:12:36.403Z,16.00
2018-08-10T02:15:06.991Z,16.00
2018-08-10T02:17:35.188Z,16.00
2018-08-10T02:20:03.400Z,15.90
2018-08-10T02:22:31.752Z,15.90
2018-08-10T02:24:59.947Z,15.90
2018-08-10T02:27:28.167Z,15.80
2018-08-10T02:29:56.532Z,15.80
2018-08-10T02:32:24.716Z,15.80
2018-08-10T02:34:53.188Z,15.70
2018-08-10T02:37:21.408Z,15.70
2018-08-10T02:39:49.797Z,15.60
2018-08-10T02:42:18.256Z,15.60
2018-08-10T02:44:46.461Z,15.60
2018-08-10T02:47:19.128Z,15.60
2018-08-10T02:49:47.339Z,15.50
2018-08-10T02:52:15.733Z,15.50
2018-08-10T02:54:43.953Z,15.50
2018-08-10T02:57:12.180Z,15.50
2018-08-10T02:59:40.672Z,15.50
2018-08-10T03:02:09.420Z,15.40
2018-08-10T03:04:37.644Z,15.40
2018-08-10T03:07:06.063Z,15.30
2018-08-10T03:09:34.262Z,15.30
2018-08-10T03:12:02.465Z,15.20
2018-08-10T03:14:31.248Z,15.20
2018-08-10T03:16:59.429Z,15.10
2018-08-10T03:19:27.698Z,15.10
2018-08-10T03:21:56.240Z,15.10
2018-08-10T03:24:24.500Z,15.00
2018-08-10T03:26:52.705Z,15.10
2018-08-10T03:29:21.072Z,15.10
2018-08-10T03:31:49.256Z,15.10
2018-08-10T03:34:17.564Z,15.10
2018-08-10T03:36:46.043Z,15.10
2018-08-10T03:39:14.264Z,15.10
2018-08-10T03:41:42.797Z,15.10
2018-08-10T03:44:11.168Z,15.10
2018-08-10T03:46:39.398Z,15.20
2018-08-10T03:49:07.562Z,15.20
2018-08-10T03:51:36.214Z,15.10
2018-08-10T03:54:05.119Z,15.10
2018-08-10T03:56:33.299Z,15.10
2018-08-10T03:59:01.639Z,15.10
2018-08-10T04:01:29.908Z,15.00
2018-08-10T04:03:58.108Z,15.00
2018-08-10T04:06:26.484Z,14.90
2018-08-10T04:08:54.680Z,14.90
2018-08-10T04:11:22.932Z,14.80
2018-08-10T04:13:51.286Z,14.80
2018-08-10T04:16:19.650Z,14.70
2018-08-10T04:18:47.832Z,14.70
2018-08-10T04:21:16.466Z,14.60
2018-08-10T04:23:44.638Z,14.50
2018-08-10T04:26:12.984Z,14.50
2018-08-10T04:28:41.385Z,14.50
2018-08-10T04:31:09.592Z,14.50
2018-08-10T04:33:37.836Z,14.50
2018-08-10T04:36:06.227Z,14.50
2018-08-10T04:38:34.521Z,14.60
2018-08-10T04:41:02.638Z,14.60
2018-08-10T04:43:30.986Z,14.60
2018-08-10T04:45:59.212Z,14.70
2018-08-10T04:48:27.415Z,14.70
2018-08-10T04:50:55.844Z,14.60
2018-08-10T04:53:24.076Z,14.60
2018-08-10T04:55:52.316Z,14.50
2018-08-10T04:58:20.699Z,14.50
2018-08-10T05:00:48.877Z,14.50
2018-08-10T05:03:17.071Z,14.40
2018-08-10T05:05:45.303Z,14.40
2018-08-10T05:08:13.547Z,14.40
2018-08-10T05:10:41.762Z,14.40
2018-08-10T05:13:10.056Z,14.40
2018-08-10T05:15:38.365Z,14.40
2018-08-10T05:18:07.172Z,14.40
2018-08-10T05:20:35.444Z,14.40
2018-08-10T05:23:03.652Z,14.30
2018-08-10T05:25:31.873Z,14.30
2018-08-10T05:28:00.132Z,14.30
2018-08-10T05:30:28.373Z,14.30
2018-08-10T05:32:56.571Z,14.20
2018-08-10T05:35:24.817Z,14.30
2018-08-10T05:37:53.032Z,14.30
2018-08-10T05:40:21.267Z,14.30
2018-08-10T05:42:49.465Z,14.40
2018-08-10T05:45:17.676Z,14.40
2018-08-10T05:47:45.900Z,14.50
2018-08-10T05:50:14.762Z,14.60
2018-08-10T05:52:42.964Z,14.60
2018-08-10T05:55:11.204Z,14.60
2018-08-10T05:57:39.449Z,14.70
2018-08-10T06:00:08.404Z,14.80
2018-08-10T06:02:36.646Z,14.90
2018-08-10T06:05:05.008Z,15.00
2018-08-10T06:07:33.225Z,15.10
2018-08-10T06:10:01.448Z,15.20
2018-08-10T06:12:30.544Z,15.30
2018-08-10T06:14:58.816Z,15.40
2018-08-10T06:17:27.128Z,15.50
2018-08-10T06:19:55.472Z,15.60
2018-08-10T06:22:23.649Z,15.60
2018-08-10T06:24:51.939Z,15.70
2018-08-10T06:27:20.157Z,15.70
2018-08-10T06:29:48.384Z,15.70
2018-08-10T06:32:16.605Z,15.70
2018-08-10T06:34:44.824Z,15.70
2018-08-10T06:37:13.032Z,15.80
2018-08-10T06:39:41.268Z,15.80
2018-08-10T06:42:09.500Z,16.00
2018-08-10T06:44:37.714Z,16.20
2018-08-10T06:47:06.039Z,16.40
2018-08-10T06:49:34.282Z,16.60
2018-08-10T06:52:02.488Z,16.70
2018-08-10T06:54:30.768Z,16.80
2018-08-10T06:56:59.765Z,16.70
2018-08-10T06:59:29.111Z,16.70
2018-08-10T07:01:57.551Z,16.70
2018-08-10T07:04:25.874Z,16.60
2018-08-10T07:06:54.691Z,16.50
2018-08-10T07:09:23.159Z,16.50
2018-08-10T07:11:51.396Z,16.40
2018-08-10T07:14:19.608Z,16.40
2018-08-10T07:16:47.804Z,16.40
2018-08-10T07:19:16.036Z,16.50
2018-08-10T07:21:44.250Z,16.40
2018-08-10T07:24:12.455Z,16.50
2018-08-10T07:26:40.672Z,16.50
2018-08-10T07:29:08.919Z,16.50
2018-08-10T07:31:37.388Z,16.50
2018-08-10T07:34:05.825Z,16.60
2018-08-10T07:36:34.249Z,16.60
2018-08-10T07:39:02.445Z,16.60
2018-08-10T07:41:30.714Z,16.70
2018-08-10T07:43:58.948Z,16.80
2018-08-10T07:46:27.162Z,16.80
2018-08-10T07:48:55.500Z,16.90
2018-08-10T07:51:23.775Z,16.90
2018-08-10T07:53:52.044Z,17.00
2018-08-10T07:56:20.243Z,17.10
2018-08-10T07:58:48.503Z,17.20
2018-08-10T08:01:16.719Z,17.20
2018-08-10T08:03:45.000Z,17.30
2018-08-10T08:06:13.282Z,17.30
2018-08-10T08:08:41.421Z,17.30
2018-08-10T08:11:09.625Z,17.40
2018-08-10T08:13:37.891Z,17.50
2018-08-10T08:16:06.128Z,17.50
2018-08-10T08:18:34.992Z,17.60
2018-08-10T08:21:08.536Z,17.70
2018-08-10T08:23:36.800Z,17.80
2018-08-10T08:26:05.288Z,17.90
2018-08-10T08:28:34.180Z,18.10
2018-08-10T08:31:03.353Z,18.40
2018-08-10T08:33:31.585Z,18.60
2018-08-10T08:36:01.180Z,18.90
2018-08-10T08:38:40.767Z,19.20
2018-08-10T08:41:09.971Z,19.40
2018-08-10T08:45:54.574Z,19.70
2018-08-10T08:48:23.466Z,20.00
2018-08-10T08:50:54.089Z,20.50
2018-08-10T08:53:22.632Z,20.80
2018-08-10T08:55:54.640Z,21.10
2018-08-10T08:58:24.409Z,21.40
2018-08-10T09:00:52.648Z,21.70
2018-08-10T09:03:33.571Z,21.90
2018-08-10T09:06:02.182Z,22.00
2018-08-10T09:08:30.385Z,22.00
2018-08-10T09:11:00.084Z,21.90
2018-08-10T09:13:35.988Z,21.80
2018-08-10T09:16:04.648Z,21.80
2018-08-10T09:18:32.844Z,21.70
2018-08-10T09:21:01.060Z,21.70
2018-08-10T09:23:29.620Z,21.70
2018-08-10T09:25:57.826Z,21.60
2018-08-10T09:28:26.074Z,21.50
2018-08-10T09:30:54.413Z,21.50
2018-08-10T09:33:22.629Z,21.60
2018-08-10T09:35:50.819Z,21.70
2018-08-10T09:38:19.118Z,21.90
2018-08-10T09:40:47.414Z,22.00
2018-08-10T09:43:15.640Z,22.10
2018-08-10T09:45:43.887Z,22.30
2018-08-10T09:48:12.383Z,22.50
2018-08-10T09:50:40.628Z,22.60
2018-08-10T09:53:08.832Z,22.60
2018-08-10T09:55:38.188Z,22.60
2018-08-10T09:58:15.899Z,22.60
2018-08-10T10:00:49.833Z,22.60
2018-08-10T10:03:25.299Z,22.60
2018-08-10T10:05:55.712Z,22.60
2018-08-10T10:08:24.615Z,22.60
2018-08-10T10:10:52.890Z,22.50
2018-08-10T10:13:21.300Z,22.30
2018-08-10T10:16:21.422Z,22.10
2018-08-10T10:18:49.619Z,21.90
2018-08-10T10:21:17.823Z,21.80
2018-08-10T10:23:46.329Z,21.60
2018-08-10T10:26:14.508Z,21.50
2018-08-10T10:28:42.709Z,21.40
2018-08-10T10:31:11.682Z,21.40
2018-08-10T10:33:39.917Z,21.40
2018-08-10T10:36:08.141Z,21.50
2018-08-10T10:38:36.543Z,21.70
2018-08-10T10:41:04.776Z,21.80
2018-08-10T10:43:32.969Z,21.90
2018-08-10T10:46:01.412Z,22.00
2018-08-10T10:48:30.096Z,22.00
2018-08-10T10:50:58.347Z,22.00
2018-08-10T10:53:26.685Z,22.10
2018-08-10T10:55:54.961Z,22.20
2018-08-10T10:58:23.869Z,22.30
2018-08-10T11:00:52.307Z,22.50
2018-08-10T11:03:20.471Z,22.80
2018-08-10T11:05:49.185Z,23.00
2018-08-10T11:08:17.369Z,23.30
2018-08-10T11:10:45.574Z,23.60
2018-08-10T11:13:13.788Z,23.90
2018-08-10T11:15:42.347Z,24.20
2018-08-10T11:18:10.576Z,24.40
2018-08-10T11:20:38.868Z,24.40
2018-08-10T11:23:07.077Z,24.40
2018-08-10T11:25:35.313Z,24.30
2018-08-10T11:28:03.500Z,24.30
2018-08-10T11:30:31.768Z,24.40
2018-08-10T11:32:59.988Z,24.50
2018-08-10T11:35:28.188Z,24.60
2018-08-10T11:37:56.431Z,24.60
2018-08-10T11:40:24.703Z,24.70
2018-08-10T11:42:52.941Z,24.70
2018-08-10T11:45:21.228Z,24.70
2018-08-10T11:47:49.461Z,24.70
2018-08-10T11:50:17.676Z,24.60
2018-08-10T11:52:45.902Z,24.60
2018-08-10T11:55:14.925Z,24.60
2018-08-10T11:57:43.842Z,24.80
2018-08-10T12:00:13.604Z,24.90
2018-08-10T12:02:42.132Z,24.80
2018-08-10T12:05:11.623Z,24.70
2018-08-10T12:07:40.008Z,24.50
2018-08-10T12:10:08.437Z,24.20
2018-08-10T12:12:36.758Z,23.80
2018-08-10T12:15:06.751Z,23.70
2018-08-10T12:17:34.971Z,23.60
2018-08-10T12:20:03.296Z,23.70
2018-08-10T12:22:31.516Z,23.90
2018-08-10T12:24:59.740Z,24.10
2018-08-10T12:27:27.938Z,24.30
2018-08-10T12:29:56.145Z,24.60
2018-08-10T12:32:24.357Z,24.80
2018-08-10T12:34:52.615Z,24.90
2018-08-10T12:37:20.928Z,24.90
2018-08-10T12:39:49.151Z,24.80
2018-08-10T12:42:17.488Z,24.80
2018-08-10T12:44:45.703Z,24.60
2018-08-10T12:47:13.911Z,24.50
2018-08-10T12:49:42.704Z,24.40
2018-08-10T12:52:10.952Z,24.40
2018-08-10T12:54:39.389Z,24.30
2018-08-10T12:57:07.681Z,24.20
2018-08-10T12:59:35.864Z,24.30
2018-08-10T13:02:04.182Z,24.40
2018-08-10T13:04:32.455Z,24.50
2018-08-10T13:07:00.715Z,24.50
2018-08-10T13:09:28.924Z,24.70
2018-08-10T13:11:57.140Z,24.80
2018-08-10T13:14:25.427Z,25.00
2018-08-10T13:16:53.662Z,25.10
2018-08-10T13:19:21.868Z,25.10
2018-08-10T13:21:50.155Z,25.10
2018-08-10T13:24:18.492Z,24.90
2018-08-10T13:26:46.732Z,24.70
2018-08-10T13:29:15.056Z,24.60
2018-08-10T13:31:43.362Z,24.60
2018-08-10T13:34:11.616Z,24.60
2018-08-10T13:36:39.864Z,24.70
2018-08-10T13:39:10.408Z,24.80
2018-08-10T13:41:39.216Z,24.80
2018-08-10T13:44:07.539Z,24.80
2018-08-10T13:46:35.836Z,24.90
2018-08-10T13:49:04.368Z,25.00
2018-08-10T13:51:32.631Z,25.00
2018-08-10T13:54:01.053Z,25.00
2018-08-10T13:56:29.291Z,25.00
2018-08-10T13:58:57.552Z,24.90
2018-08-10T14:01:25.789Z,24.90
2018-08-10T14:03:54.057Z,24.80
2018-08-10T14:06:22.351Z,24.80
2018-08-10T14:08:50.672Z,24.90
2018-08-10T14:11:18.911Z,24.80
2018-08-10T14:13:47.756Z,24.90
2018-08-10T14:16:15.967Z,25.00
2018-08-10T14:18:44.814Z,25.00
2018-08-10T14:21:13.697Z,25.10
2018-08-10T14:23:41.888Z,25.00
2018-08-10T14:26:10.204Z,25.00
2018-08-10T14:28:38.424Z,25.20
2018-08-10T14:31:07.201Z,25.50
2018-08-10T14:33:35.404Z,25.80
2018-08-10T14:36:03.660Z,26.10
2018-08-10T14:38:31.871Z,26.50
2018-08-10T14:41:00.110Z,26.70
2018-08-10T14:43:28.807Z,26.60
2018-08-10T14:45:57.071Z,26.40
2018-08-10T14:48:25.285Z,26.40
2018-08-10T14:50:53.568Z,26.60
2018-08-10T14:53:21.819Z,26.90
2018-08-10T14:55:49.973Z,27.10
2018-08-10T14:58:18.209Z,27.40
2018-08-10T15:00:46.401Z,27.80
2018-08-10T15:03:14.644Z,28.10
2018-08-10T15:05:42.880Z,28.40
2018-08-10T15:08:11.083Z,28.60
2018-08-10T15:10:39.333Z,28.90
2018-08-10T15:13:07.641Z,29.00
2018-08-10T15:15:35.827Z,29.20
2018-08-10T15:18:04.683Z,29.40
2018-08-10T15:20:32.888Z,29.50
2018-08-10T15:23:01.121Z,29.20
2018-08-10T15:25:29.331Z,28.90
2018-08-10T15:27:57.643Z,28.80
2018-08-10T15:30:25.991Z,28.80
2018-08-10T15:32:54.191Z,28.90
2018-08-10T15:35:22.429Z,29.00
2018-08-10T15:37:50.669Z,28.60
2018-08-10T15:40:19.868Z,28.10
2018-08-10T15:42:48.084Z,27.60
2018-08-10T15:45:17.244Z,27.20
2018-08-10T15:47:45.923Z,26.80
2018-08-10T15:50:14.368Z,26.50
2018-08-10T15:52:43.923Z,26.30
2018-08-10T15:55:12.535Z,26.20
2018-08-10T15:57:41.155Z,26.10
2018-08-10T16:00:14.840Z,26.10
2018-08-10T16:02:43.272Z,26.00
2018-08-10T16:05:11.938Z,26.00
2018-08-10T16:07:41.336Z,26.10
2018-08-10T16:10:09.841Z,26.30
2018-08-10T16:12:38.644Z,26.40
2018-08-10T16:15:09.535Z,26.50
2018-08-10T16:17:38.093Z,26.30
2018-08-10T16:20:07.514Z,26.30
2018-08-10T16:22:35.826Z,26.30
2018-08-10T16:25:04.716Z,26.30
2018-08-10T16:27:32.961Z,26.30
2018-08-10T16:30:01.205Z,26.30
2018-08-10T16:32:29.467Z,26.30
2018-08-10T16:34:58.123Z,26.20
2018-08-10T16:37:26.368Z,26.10
2018-08-10T16:39:54.576Z,26.00
2018-08-10T16:42:22.920Z,25.90
2018-08-10T16:44:51.200Z,25.90
2018-08-10T16:47:19.433Z,25.90
2018-08-10T16:49:47.641Z,25.70
2018-08-10T16:52:15.887Z,25.50
2018-08-10T16:54:44.096Z,25.20
2018-08-10T16:57:12.464Z,25.00
2018-08-10T16:59:40.612Z,24.80
2018-08-10T17:02:09.564Z,24.60
2018-08-10T17:04:37.818Z,24.40
2018-08-10T17:07:06.049Z,24.30
2018-08-10T17:09:34.328Z,24.30
2018-08-10T17:12:02.547Z,24.40
2018-08-10T17:14:30.953Z,24.70
2018-08-10T17:16:59.337Z,24.90
2018-08-10T17:19:27.556Z,24.80
2018-08-10T17:21:55.751Z,24.50
2018-08-10T17:24:24.208Z,24.20
2018-08-10T17:26:52.409Z,23.90
2018-08-10T17:29:20.611Z,23.60
2018-08-10T17:31:49.058Z,23.30
2018-08-10T17:34:17.310Z,23.10
2018-08-10T17:36:45.536Z,22.90
2018-08-10T17:39:14.809Z,22.80
2018-08-10T17:41:43.279Z,22.60
2018-08-10T17:44:11.996Z,22.50
2018-08-10T17:46:40.434Z,22.40
2018-08-10T17:49:08.684Z,22.50
2018-08-10T17:51:37.152Z,22.60
2018-08-10T17:54:05.919Z,22.70
2018-08-10T17:56:35.222Z,22.70
2018-08-10T17:59:03.502Z,22.80
2018-08-10T18:01:31.800Z,23.10
2018-08-10T18:04:00.024Z,23.20
2018-08-10T18:06:28.284Z,23.10
2018-08-10T18:08:56.671Z,22.80
2018-08-10T18:11:24.879Z,22.50
2018-08-10T18:13:53.097Z,22.20
2018-08-10T18:16:21.535Z,22.00
2018-08-10T18:18:49.755Z,21.70
2018-08-10T18:21:17.982Z,21.40
2018-08-10T18:23:46.403Z,21.10
2018-08-10T18:26:14.619Z,20.90
2018-08-10T18:28:42.862Z,20.60
2018-08-10T18:31:11.273Z,20.40
2018-08-10T18:33:39.508Z,20.20
2018-08-10T18:36:07.687Z,20.00
2018-08-10T18:38:36.140Z,19.90
2018-08-10T18:41:04.367Z,19.80
2018-08-10T18:43:32.698Z,19.70
2018-08-10T18:46:00.919Z,19.60
2018-08-10T18:48:29.116Z,19.50
2018-08-10T18:50:57.396Z,19.50
2018-08-10T18:53:26.697Z,19.40
2018-08-10T18:55:54.989Z,19.30
2018-08-10T18:58:23.247Z,19.20
2018-08-10T19:00:51.474Z,19.10
2018-08-10T19:03:19.676Z,19.00
2018-08-10T19:05:47.939Z,18.90
2018-08-10T19:08:16.153Z,18.80
2018-08-10T19:10:44.516Z,18.80
2018-08-10T19:13:12.773Z,18.70
2018-08-10T19:15:41.016Z,18.70
2018-08-10T19:18:09.287Z,18.60
2018-08-10T19:20:37.508Z,18.60
2018-08-10T19:23:05.771Z,18.50
2018-08-10T19:25:33.972Z,18.40
2018-08-10T19:28:02.287Z,18.30
2018-08-10T19:30:30.546Z,18.20
2018-08-10T19:32:58.910Z,18.20
2018-08-10T19:35:27.163Z,18.10
2018-08-10T19:37:55.378Z,18.00
2018-08-10T19:40:23.628Z,18.00
2018-08-10T19:42:51.882Z,17.90
2018-08-10T19:45:20.096Z,17.90
2018-08-10T19:47:48.394Z,17.80
2018-08-10T19:50:17.384Z,17.70
2018-08-10T19:52:45.586Z,17.60
2018-08-10T19:55:14.531Z,17.50
2018-08-10T19:57:42.811Z,17.50
2018-08-10T20:00:12.728Z,17.40
2018-08-10T20:02:41.004Z,17.40
2018-08-10T20:05:09.875Z,17.30
2018-08-10T20:07:38.397Z,17.20
2018-08-10T20:10:07.204Z,17.10
2018-08-10T20:12:35.896Z,17.00
2018-08-10T20:15:05.155Z,16.90
2018-08-10T20:17:33.416Z,16.80
2018-08-10T20:20:01.669Z,16.70
2018-08-10T20:22:29.928Z,16.70
2018-08-10T20:24:58.146Z,16.60
2018-08-10T20:27:26.385Z,16.60
2018-08-10T20:29:54.634Z,16.50
2018-08-10T20:32:22.859Z,16.50
2018-08-10T20:34:51.303Z,16.50
2018-08-10T20:37:19.508Z,16.50
2018-08-10T20:39:47.819Z,16.60
2018-08-10T20:42:16.032Z,16.70
2018-08-10T20:44:44.387Z,16.80
2018-08-10T20:47:12.611Z,16.80
2018-08-10T20:49:40.870Z,16.90
2018-08-10T20:52:09.095Z,16.90
2018-08-10T20:54:37.355Z,16.90
2018-08-10T20:57:05.788Z,16.90
2018-08-10T20:59:34.012Z,16.80
2018-08-10T21:02:02.230Z,16.70
2018-08-10T21:04:30.572Z,16.60
2018-08-10T21:06:58.703Z,16.50
2018-08-10T21:09:26.924Z,16.40
2018-08-10T21:11:55.129Z,16.30
2018-08-10T21:14:23.364Z,16.20
2018-08-10T21:16:51.553Z,16.20
2018-08-10T21:19:19.816Z,16.10
2018-08-10T21:21:48.008Z,16.00
2018-08-10T21:24:16.266Z,16.00
2018-08-10T21:26:44.631Z,15.90
2018-08-10T21:29:12.788Z,15.80
2018-08-10T21:31:41.012Z,15.70
2018-08-10T21:34:09.223Z,15.60
2018-08-10T21:36:37.429Z,15.50
2018-08-10T21:39:07.898Z,15.40
2018-08-10T21:41:36.136Z,15.40
2018-08-10T21:44:04.340Z,15.30
2018-08-10T21:46:32.568Z,15.20
2018-08-10T21:49:00.752Z,15.20
2018-08-10T21:51:29.492Z,15.10
2018-08-10T21:53:57.688Z,15.10
2018-08-10T21:56:26.116Z,15.10
2018-08-10T21:58:55.275Z,15.10
2018-08-10T22:01:23.520Z,15.10
2018-08-10T22:03:52.181Z,15.20
2018-08-10T22:06:20.377Z,15.20
2018-08-10T22:08:48.576Z,15.30
2018-08-10T22:11:16.972Z,15.30
2018-08-10T22:13:50.539Z,15.30
2018-08-10T22:17:28.417Z,15.20
2018-08-10T22:20:00.430Z,15.20
2018-08-10T22:22:29.903Z,15.10
2018-08-10T22:24:58.158Z,15.10
2018-08-10T22:27:26.774Z,15.00
2018-08-10T22:29:55.287Z,15.00
2018-08-10T22:32:23.507Z,14.90
2018-08-10T22:34:51.928Z,15.00
2018-08-10T22:37:20.457Z,15.00
2018-08-10T22:39:48.725Z,15.00
2018-08-10T22:42:16.928Z,15.00
2018-08-10T22:44:45.531Z,15.00
2018-08-10T22:47:13.723Z,14.90
2018-08-10T22:49:41.963Z,14.90
2018-08-10T22:52:10.391Z,14.90
2018-08-10T22:54:38.605Z,14.90
2018-08-10T22:57:06.814Z,14.90
2018-08-10T22:59:35.672Z,14.80
2018-08-10T23:02:03.925Z,14.80
2018-08-10T23:04:32.143Z,14.70
2018-08-10T23:07:00.536Z,14.70
2018-08-10T23:09:28.724Z,14.60
2018-08-10T23:11:56.928Z,14.50
2018-08-10T23:14:25.301Z,14.50
2018-08-10T23:16:53.487Z,14.40
2018-08-10T23:19:21.712Z,14.40
2018-08-10T23:24:09.652Z,14.40
2018-08-10T23:26:37.892Z,14.30
2018-08-10T23:29:06.106Z,14.30
2018-08-10T23:31:34.736Z,14.40
2018-08-10T23:34:03.006Z,14.50
2018-08-10T23:36:31.188Z,14.60
2018-08-10T23:38:59.607Z,14.70
2018-08-10T23:41:27.787Z,14.80
2018-08-10T23:43:56.014Z,14.90
2018-08-10T23:46:24.527Z,15.00
2018-08-10T23:48:52.729Z,15.00
2018-08-10T23:51:20.976Z,15.20
2018-08-10T23:53:49.424Z,15.30
2018-08-10T23:56:17.647Z,15.50
2018-08-10T23:58:46.020Z,15.50
